sensor_id;sensor_type;location;lat;lon;timestamp;P1;durP1;ratioP1;P2;durP2;ratioP2
19183;SDS011;9724;51.194;6.856;2022-12-08T00:02:06;28.57;;;15.67;;
19183;SDS011;9724;51.194;6.856;2022-12-08T00:04:33;28.93;;;16.03;;
19183;SDS011;9724;51.194;6.856;2022-12-08T00:07:19;25.67;;;15.30;;
19183;SDS011;9724;51.194;6.856;2022-12-08T00:10:04;27.37;;;15.73;;
19183;SDS011;9724;51.194;6.856;2022-12-08T00:12:51;27.90;;;15.10;;
19183;SDS011;9724;51.194;6.856;2022-12-08T00:15:18;27.90;;;14.67;;
19183;SDS011;9724;51.194;6.856;2022-12-08T00:17:44;32.13;;;15.03;;
19183;SDS011;9724;51.194;6.856;2022-12-08T00:20:11;29.30;;;15.50;;
19183;SDS011;9724;51.194;6.856;2022-12-08T00:22:37;31.50;;;16.00;;
19183;SDS011;9724;51.194;6.856;2022-12-08T00:25:03;25.57;;;15.43;;
19183;SDS011;9724;51.194;6.856;2022-12-08T00:27:30;25.87;;;15.00;;
19183;SDS011;9724;51.194;6.856;2022-12-08T00:29:57;26.80;;;14.67;;
19183;SDS011;9724;51.194;6.856;2022-12-08T00:32:23;31.87;;;15.27;;
19183;SDS011;9724;51.194;6.856;2022-12-08T00:34:50;30.67;;;14.93;;
19183;SDS011;9724;51.194;6.856;2022-12-08T00:37:16;30.03;;;15.30;;
19183;SDS011;9724;51.194;6.856;2022-12-08T00:39:42;28.87;;;14.50;;
19183;SDS011;9724;51.194;6.856;2022-12-08T00:42:08;24.77;;;14.37;;
19183;SDS011;9724;51.194;6.856;2022-12-08T00:44:37;27.17;;;14.73;;
19183;SDS011;9724;51.194;6.856;2022-12-08T00:47:04;28.17;;;14.77;;
19183;SDS011;9724;51.194;6.856;2022-12-08T00:49:30;21.47;;;13.03;;
19183;SDS011;9724;51.194;6.856;2022-12-08T00:51:57;24.60;;;14.20;;
19183;SDS011;9724;51.194;6.856;2022-12-08T00:54:23;25.60;;;14.27;;
19183;SDS011;9724;51.194;6.856;2022-12-08T00:56:49;23.90;;;13.13;;
19183;SDS011;9724;51.194;6.856;2022-12-08T00:59:16;22.13;;;13.47;;
19183;SDS011;9724;51.194;6.856;2022-12-08T01:01:42;23.73;;;14.00;;
19183;SDS011;9724;51.194;6.856;2022-12-08T01:04:10;22.50;;;13.37;;
19183;SDS011;9724;51.194;6.856;2022-12-08T01:06:39;21.77;;;13.17;;
19183;SDS011;9724;51.194;6.856;2022-12-08T01:09:07;30.07;;;12.73;;
19183;SDS011;9724;51.194;6.856;2022-12-08T01:11:33;23.97;;;13.87;;
19183;SDS011;9724;51.194;6.856;2022-12-08T01:14:01;20.67;;;13.03;;
19183;SDS011;9724;51.194;6.856;2022-12-08T01:16:28;20.70;;;12.60;;
19183;SDS011;9724;51.194;6.856;2022-12-08T01:18:55;22.17;;;12.93;;
19183;SDS011;9724;51.194;6.856;2022-12-08T01:21:22;24.80;;;13.37;;
19183;SDS011;9724;51.194;6.856;2022-12-08T01:23:48;20.57;;;13.27;;
19183;SDS011;9724;51.194;6.856;2022-12-08T01:26:15;22.83;;;12.80;;
19183;SDS011;9724;51.194;6.856;2022-12-08T01:28:42;27.07;;;13.23;;
19183;SDS011;9724;51.194;6.856;2022-12-08T01:31:09;27.60;;;14.30;;
19183;SDS011;9724;51.194;6.856;2022-12-08T01:33:37;27.97;;;15.23;;
19183;SDS011;9724;51.194;6.856;2022-12-08T01:36:03;25.10;;;14.33;;
19183;SDS011;9724;51.194;6.856;2022-12-08T01:38:30;36.40;;;15.87;;
19183;SDS011;9724;51.194;6.856;2022-12-08T01:40:56;30.30;;;14.97;;
19183;SDS011;9724;51.194;6.856;2022-12-08T01:43:23;27.53;;;15.67;;
19183;SDS011;9724;51.194;6.856;2022-12-08T01:45:49;29.30;;;15.43;;
19183;SDS011;9724;51.194;6.856;2022-12-08T01:48:17;31.13;;;16.33;;
19183;SDS011;9724;51.194;6.856;2022-12-08T01:50:45;33.03;;;17.33;;
19183;SDS011;9724;51.194;6.856;2022-12-08T01:53:13;33.30;;;17.93;;
19183;SDS011;9724;51.194;6.856;2022-12-08T01:55:42;32.40;;;16.67;;
19183;SDS011;9724;51.194;6.856;2022-12-08T01:58:10;35.60;;;18.47;;
19183;SDS011;9724;51.194;6.856;2022-12-08T02:00:40;33.53;;;17.47;;
19183;SDS011;9724;51.194;6.856;2022-12-08T02:03:08;41.67;;;18.20;;
19183;SDS011;9724;51.194;6.856;2022-12-08T02:05:38;38.80;;;18.27;;
19183;SDS011;9724;51.194;6.856;2022-12-08T02:08:06;31.67;;;17.90;;
19183;SDS011;9724;51.194;6.856;2022-12-08T02:10:34;36.67;;;17.87;;
19183;SDS011;9724;51.194;6.856;2022-12-08T02:13:02;32.73;;;18.00;;
19183;SDS011;9724;51.194;6.856;2022-12-08T02:15:31;33.13;;;17.30;;
19183;SDS011;9724;51.194;6.856;2022-12-08T02:18:05;35.87;;;18.13;;
19183;SDS011;9724;51.194;6.856;2022-12-08T02:20:40;33.97;;;18.27;;
19183;SDS011;9724;51.194;6.856;2022-12-08T02:23:15;33.00;;;17.70;;
19183;SDS011;9724;51.194;6.856;2022-12-08T02:25:53;32.60;;;17.70;;
19183;SDS011;9724;51.194;6.856;2022-12-08T02:28:37;31.20;;;17.27;;
19183;SDS011;9724;51.194;6.856;2022-12-08T02:31:16;34.47;;;17.50;;
19183;SDS011;9724;51.194;6.856;2022-12-08T02:34:09;32.93;;;16.77;;
19183;SDS011;9724;51.194;6.856;2022-12-08T02:36:40;36.50;;;17.83;;
19183;SDS011;9724;51.194;6.856;2022-12-08T02:39:10;28.17;;;15.90;;
19183;SDS011;9724;51.194;6.856;2022-12-08T02:41:47;28.27;;;15.57;;
19183;SDS011;9724;51.194;6.856;2022-12-08T02:44:20;29.70;;;15.77;;
19183;SDS011;9724;51.194;6.856;2022-12-08T02:46:50;29.47;;;15.77;;
19183;SDS011;9724;51.194;6.856;2022-12-08T02:49:18;26.40;;;15.30;;
19183;SDS011;9724;51.194;6.856;2022-12-08T02:51:44;24.07;;;14.90;;
19183;SDS011;9724;51.194;6.856;2022-12-08T02:54:10;29.10;;;14.63;;
19183;SDS011;9724;51.194;6.856;2022-12-08T02:56:40;27.97;;;15.23;;
19183;SDS011;9724;51.194;6.856;2022-12-08T02:59:18;25.00;;;15.00;;
19183;SDS011;9724;51.194;6.856;2022-12-08T03:01:57;29.07;;;15.17;;
19183;SDS011;9724;51.194;6.856;2022-12-08T03:04:33;25.77;;;15.30;;
19183;SDS011;9724;51.194;6.856;2022-12-08T03:07:05;28.00;;;14.27;;
19183;SDS011;9724;51.194;6.856;2022-12-08T03:09:33;30.40;;;14.93;;
19183;SDS011;9724;51.194;6.856;2022-12-08T03:12:04;30.77;;;15.13;;
19183;SDS011;9724;51.194;6.856;2022-12-08T03:14:33;32.50;;;16.27;;
19183;SDS011;9724;51.194;6.856;2022-12-08T03:16:59;38.17;;;15.97;;
19183;SDS011;9724;51.194;6.856;2022-12-08T03:19:26;27.60;;;16.00;;
19183;SDS011;9724;51.194;6.856;2022-12-08T03:21:54;29.63;;;16.13;;
19183;SDS011;9724;51.194;6.856;2022-12-08T03:24:27;31.13;;;16.80;;
19183;SDS011;9724;51.194;6.856;2022-12-08T03:26:55;30.33;;;16.43;;
19183;SDS011;9724;51.194;6.856;2022-12-08T03:29:22;28.37;;;15.87;;
19183;SDS011;9724;51.194;6.856;2022-12-08T03:31:49;33.00;;;16.03;;
19183;SDS011;9724;51.194;6.856;2022-12-08T03:34:18;31.53;;;16.50;;
19183;SDS011;9724;51.194;6.856;2022-12-08T03:36:44;39.73;;;16.40;;
19183;SDS011;9724;51.194;6.856;2022-12-08T03:39:11;26.80;;;15.10;;
19183;SDS011;9724;51.194;6.856;2022-12-08T03:41:38;26.50;;;14.93;;
19183;SDS011;9724;51.194;6.856;2022-12-08T03:44:04;28.13;;;13.53;;
19183;SDS011;9724;51.194;6.856;2022-12-08T03:46:30;24.67;;;13.33;;
19183;SDS011;9724;51.194;6.856;2022-12-08T03:48:57;24.03;;;13.87;;
19183;SDS011;9724;51.194;6.856;2022-12-08T03:51:23;21.03;;;13.00;;
19183;SDS011;9724;51.194;6.856;2022-12-08T03:53:51;18.97;;;12.30;;
19183;SDS011;9724;51.194;6.856;2022-12-08T03:56:21;26.60;;;13.47;;
19183;SDS011;9724;51.194;6.856;2022-12-08T03:58:48;20.37;;;11.97;;
19183;SDS011;9724;51.194;6.856;2022-12-08T04:01:15;16.63;;;11.30;;
19183;SDS011;9724;51.194;6.856;2022-12-08T04:03:42;20.87;;;11.93;;
19183;SDS011;9724;51.194;6.856;2022-12-08T04:06:09;21.23;;;11.70;;
19183;SDS011;9724;51.194;6.856;2022-12-08T04:08:35;22.60;;;12.37;;
19183;SDS011;9724;51.194;6.856;2022-12-08T04:11:01;15.80;;;10.27;;
19183;SDS011;9724;51.194;6.856;2022-12-08T04:13:28;17.30;;;10.20;;
19183;SDS011;9724;51.194;6.856;2022-12-08T04:15:54;14.83;;;9.23;;
19183;SDS011;9724;51.194;6.856;2022-12-08T04:18:21;13.93;;;9.10;;
19183;SDS011;9724;51.194;6.856;2022-12-08T04:20:47;20.87;;;10.43;;
19183;SDS011;9724;51.194;6.856;2022-12-08T04:23:13;15.77;;;9.97;;
19183;SDS011;9724;51.194;6.856;2022-12-08T04:25:39;14.57;;;8.97;;
19183;SDS011;9724;51.194;6.856;2022-12-08T04:28:06;19.00;;;10.63;;
19183;SDS011;9724;51.194;6.856;2022-12-08T04:30:33;15.67;;;9.50;;
19183;SDS011;9724;51.194;6.856;2022-12-08T04:33:00;18.07;;;10.60;;
19183;SDS011;9724;51.194;6.856;2022-12-08T04:35:26;19.43;;;10.63;;
19183;SDS011;9724;51.194;6.856;2022-12-08T04:37:52;20.73;;;11.20;;
19183;SDS011;9724;51.194;6.856;2022-12-08T04:40:19;17.00;;;9.87;;
19183;SDS011;9724;51.194;6.856;2022-12-08T04:42:45;15.73;;;9.63;;
19183;SDS011;9724;51.194;6.856;2022-12-08T04:45:11;18.13;;;10.13;;
19183;SDS011;9724;51.194;6.856;2022-12-08T04:47:38;17.87;;;10.43;;
19183;SDS011;9724;51.194;6.856;2022-12-08T04:50:05;18.17;;;10.80;;
19183;SDS011;9724;51.194;6.856;2022-12-08T04:52:32;19.60;;;10.90;;
19183;SDS011;9724;51.194;6.856;2022-12-08T04:54:59;19.80;;;10.93;;
19183;SDS011;9724;51.194;6.856;2022-12-08T04:57:25;16.33;;;10.43;;
19183;SDS011;9724;51.194;6.856;2022-12-08T04:59:51;16.97;;;10.43;;
19183;SDS011;9724;51.194;6.856;2022-12-08T05:02:18;19.30;;;10.27;;
19183;SDS011;9724;51.194;6.856;2022-12-08T05:04:45;18.30;;;11.13;;
19183;SDS011;9724;51.194;6.856;2022-12-08T05:07:11;17.60;;;10.47;;
19183;SDS011;9724;51.194;6.856;2022-12-08T05:09:38;23.10;;;10.97;;
19183;SDS011;9724;51.194;6.856;2022-12-08T05:12:04;22.80;;;11.13;;
19183;SDS011;9724;51.194;6.856;2022-12-08T05:14:31;19.03;;;11.53;;
19183;SDS011;9724;51.194;6.856;2022-12-08T05:16:57;20.93;;;11.70;;
19183;SDS011;9724;51.194;6.856;2022-12-08T05:19:24;19.37;;;11.10;;
19183;SDS011;9724;51.194;6.856;2022-12-08T05:21:51;17.93;;;11.40;;
19183;SDS011;9724;51.194;6.856;2022-12-08T05:24:17;18.17;;;11.73;;
19183;SDS011;9724;51.194;6.856;2022-12-08T05:26:43;22.83;;;11.83;;
19183;SDS011;9724;51.194;6.856;2022-12-08T05:29:10;23.27;;;12.57;;
19183;SDS011;9724;51.194;6.856;2022-12-08T05:31:36;21.90;;;12.73;;
19183;SDS011;9724;51.194;6.856;2022-12-08T05:34:04;23.10;;;12.67;;
19183;SDS011;9724;51.194;6.856;2022-12-08T05:36:32;25.83;;;13.17;;
19183;SDS011;9724;51.194;6.856;2022-12-08T05:38:59;26.57;;;14.23;;
19183;SDS011;9724;51.194;6.856;2022-12-08T05:41:25;24.83;;;14.63;;
19183;SDS011;9724;51.194;6.856;2022-12-08T05:43:52;30.83;;;15.20;;
19183;SDS011;9724;51.194;6.856;2022-12-08T05:46:18;28.87;;;15.27;;
19183;SDS011;9724;51.194;6.856;2022-12-08T05:48:44;33.03;;;16.60;;
19183;SDS011;9724;51.194;6.856;2022-12-08T05:51:14;31.17;;;15.97;;
19183;SDS011;9724;51.194;6.856;2022-12-08T05:53:41;33.43;;;18.30;;
19183;SDS011;9724;51.194;6.856;2022-12-08T05:56:08;32.03;;;16.97;;
19183;SDS011;9724;51.194;6.856;2022-12-08T05:58:34;39.67;;;18.60;;
19183;SDS011;9724;51.194;6.856;2022-12-08T06:01:00;33.40;;;17.20;;
19183;SDS011;9724;51.194;6.856;2022-12-08T06:03:27;41.63;;;18.03;;
19183;SDS011;9724;51.194;6.856;2022-12-08T06:05:54;33.83;;;18.10;;
19183;SDS011;9724;51.194;6.856;2022-12-08T06:08:20;44.13;;;19.33;;
19183;SDS011;9724;51.194;6.856;2022-12-08T06:10:46;38.23;;;19.77;;
19183;SDS011;9724;51.194;6.856;2022-12-08T06:13:13;35.37;;;19.33;;
19183;SDS011;9724;51.194;6.856;2022-12-08T06:15:40;35.77;;;18.93;;
19183;SDS011;9724;51.194;6.856;2022-12-08T06:18:07;43.03;;;19.20;;
19183;SDS011;9724;51.194;6.856;2022-12-08T06:20:34;37.23;;;20.10;;
19183;SDS011;9724;51.194;6.856;2022-12-08T06:23:01;33.07;;;18.97;;
19183;SDS011;9724;51.194;6.856;2022-12-08T06:25:27;46.57;;;19.97;;
19183;SDS011;9724;51.194;6.856;2022-12-08T06:27:54;37.20;;;19.20;;
19183;SDS011;9724;51.194;6.856;2022-12-08T06:30:21;38.33;;;19.33;;
19183;SDS011;9724;51.194;6.856;2022-12-08T06:32:48;33.60;;;17.93;;
19183;SDS011;9724;51.194;6.856;2022-12-08T06:35:14;37.00;;;18.37;;
19183;SDS011;9724;51.194;6.856;2022-12-08T06:37:40;42.53;;;18.97;;
19183;SDS011;9724;51.194;6.856;2022-12-08T06:40:07;33.77;;;17.63;;
19183;SDS011;9724;51.194;6.856;2022-12-08T06:42:34;33.83;;;17.70;;
19183;SDS011;9724;51.194;6.856;2022-12-08T06:45:09;35.23;;;16.60;;
19183;SDS011;9724;51.194;6.856;2022-12-08T06:47:37;29.67;;;16.90;;
19183;SDS011;9724;51.194;6.856;2022-12-08T06:50:03;27.17;;;15.80;;
19183;SDS011;9724;51.194;6.856;2022-12-08T06:52:31;31.20;;;17.27;;
19183;SDS011;9724;51.194;6.856;2022-12-08T06:54:57;27.27;;;15.97;;
19183;SDS011;9724;51.194;6.856;2022-12-08T06:57:24;28.43;;;16.17;;
19183;SDS011;9724;51.194;6.856;2022-12-08T06:59:50;27.00;;;14.53;;
19183;SDS011;9724;51.194;6.856;2022-12-08T07:02:16;29.20;;;16.00;;
19183;SDS011;9724;51.194;6.856;2022-12-08T07:04:43;26.80;;;15.30;;
19183;SDS011;9724;51.194;6.856;2022-12-08T07:07:09;34.07;;;16.03;;
19183;SDS011;9724;51.194;6.856;2022-12-08T07:09:36;33.27;;;16.50;;
19183;SDS011;9724;51.194;6.856;2022-12-08T07:12:02;31.20;;;16.53;;
19183;SDS011;9724;51.194;6.856;2022-12-08T07:14:28;30.20;;;16.97;;
19183;SDS011;9724;51.194;6.856;2022-12-08T07:16:55;30.73;;;16.27;;
19183;SDS011;9724;51.194;6.856;2022-12-08T07:19:21;28.43;;;16.57;;
19183;SDS011;9724;51.194;6.856;2022-12-08T07:21:48;32.20;;;17.37;;
19183;SDS011;9724;51.194;6.856;2022-12-08T07:24:14;33.13;;;18.03;;
19183;SDS011;9724;51.194;6.856;2022-12-08T07:26:40;34.23;;;17.30;;
19183;SDS011;9724;51.194;6.856;2022-12-08T07:29:06;37.37;;;18.07;;
19183;SDS011;9724;51.194;6.856;2022-12-08T07:31:34;37.70;;;17.60;;
19183;SDS011;9724;51.194;6.856;2022-12-08T07:34:00;36.53;;;18.17;;
19183;SDS011;9724;51.194;6.856;2022-12-08T07:36:26;33.60;;;18.37;;
19183;SDS011;9724;51.194;6.856;2022-12-08T07:38:53;35.40;;;17.17;;
19183;SDS011;9724;51.194;6.856;2022-12-08T07:41:20;36.17;;;16.83;;
19183;SDS011;9724;51.194;6.856;2022-12-08T07:43:49;36.07;;;18.70;;
19183;SDS011;9724;51.194;6.856;2022-12-08T07:46:15;38.20;;;18.87;;
19183;SDS011;9724;51.194;6.856;2022-12-08T07:48:43;38.17;;;18.43;;
19183;SDS011;9724;51.194;6.856;2022-12-08T07:51:09;36.87;;;17.10;;
19183;SDS011;9724;51.194;6.856;2022-12-08T07:53:38;30.77;;;15.53;;
19183;SDS011;9724;51.194;6.856;2022-12-08T07:56:09;29.93;;;15.77;;
19183;SDS011;9724;51.194;6.856;2022-12-08T07:58:36;30.20;;;15.63;;
19183;SDS011;9724;51.194;6.856;2022-12-08T08:01:02;28.37;;;15.17;;
19183;SDS011;9724;51.194;6.856;2022-12-08T08:03:28;30.87;;;16.33;;
19183;SDS011;9724;51.194;6.856;2022-12-08T08:06:00;26.53;;;14.60;;
19183;SDS011;9724;51.194;6.856;2022-12-08T08:08:27;25.70;;;14.00;;
19183;SDS011;9724;51.194;6.856;2022-12-08T08:10:53;26.70;;;14.73;;
19183;SDS011;9724;51.194;6.856;2022-12-08T08:13:20;30.40;;;15.07;;
19183;SDS011;9724;51.194;6.856;2022-12-08T08:15:46;32.90;;;15.43;;
19183;SDS011;9724;51.194;6.856;2022-12-08T08:18:12;29.07;;;13.83;;
19183;SDS011;9724;51.194;6.856;2022-12-08T08:20:39;33.37;;;15.83;;
19183;SDS011;9724;51.194;6.856;2022-12-08T08:23:05;31.13;;;15.17;;
19183;SDS011;9724;51.194;6.856;2022-12-08T08:25:31;29.73;;;14.43;;
19183;SDS011;9724;51.194;6.856;2022-12-08T08:27:57;29.07;;;14.67;;
19183;SDS011;9724;51.194;6.856;2022-12-08T08:30:25;30.73;;;15.67;;
19183;SDS011;9724;51.194;6.856;2022-12-08T08:32:51;30.93;;;15.37;;
19183;SDS011;9724;51.194;6.856;2022-12-08T08:35:17;32.40;;;16.63;;
19183;SDS011;9724;51.194;6.856;2022-12-08T08:37:43;37.13;;;17.40;;
19183;SDS011;9724;51.194;6.856;2022-12-08T08:40:14;34.63;;;17.13;;
19183;SDS011;9724;51.194;6.856;2022-12-08T08:42:40;31.10;;;17.90;;
19183;SDS011;9724;51.194;6.856;2022-12-08T08:45:07;33.87;;;17.40;;
19183;SDS011;9724;51.194;6.856;2022-12-08T08:47:34;40.57;;;17.83;;
19183;SDS011;9724;51.194;6.856;2022-12-08T08:50:00;32.30;;;16.60;;
19183;SDS011;9724;51.194;6.856;2022-12-08T08:52:26;36.40;;;17.27;;
19183;SDS011;9724;51.194;6.856;2022-12-08T08:54:52;34.17;;;17.50;;
19183;SDS011;9724;51.194;6.856;2022-12-08T08:57:19;35.27;;;17.87;;
19183;SDS011;9724;51.194;6.856;2022-12-08T08:59:51;41.40;;;18.67;;
19183;SDS011;9724;51.194;6.856;2022-12-08T09:02:17;34.63;;;17.57;;
19183;SDS011;9724;51.194;6.856;2022-12-08T09:04:45;41.67;;;18.87;;
19183;SDS011;9724;51.194;6.856;2022-12-08T09:07:11;45.43;;;19.73;;
19183;SDS011;9724;51.194;6.856;2022-12-08T09:09:38;40.37;;;19.50;;
19183;SDS011;9724;51.194;6.856;2022-12-08T09:12:04;38.17;;;18.70;;
19183;SDS011;9724;51.194;6.856;2022-12-08T09:14:31;39.73;;;19.37;;
19183;SDS011;9724;51.194;6.856;2022-12-08T09:16:57;41.87;;;18.73;;
19183;SDS011;9724;51.194;6.856;2022-12-08T09:19:23;39.83;;;18.97;;
19183;SDS011;9724;51.194;6.856;2022-12-08T09:21:50;46.27;;;19.57;;
19183;SDS011;9724;51.194;6.856;2022-12-08T09:24:16;41.67;;;19.23;;
19183;SDS011;9724;51.194;6.856;2022-12-08T09:26:43;37.47;;;17.23;;
19183;SDS011;9724;51.194;6.856;2022-12-08T09:29:10;37.03;;;18.43;;
19183;SDS011;9724;51.194;6.856;2022-12-08T09:31:38;44.53;;;18.07;;
19183;SDS011;9724;51.194;6.856;2022-12-08T09:34:04;34.63;;;17.90;;
19183;SDS011;9724;51.194;6.856;2022-12-08T09:36:30;36.33;;;17.77;;
19183;SDS011;9724;51.194;6.856;2022-12-08T09:38:57;36.13;;;16.07;;
19183;SDS011;9724;51.194;6.856;2022-12-08T09:41:27;36.07;;;16.63;;
19183;SDS011;9724;51.194;6.856;2022-12-08T09:44:14;31.73;;;14.73;;
19183;SDS011;9724;51.194;6.856;2022-12-08T09:47:05;36.47;;;15.10;;
19183;SDS011;9724;51.194;6.856;2022-12-08T09:49:39;32.33;;;14.97;;
19183;SDS011;9724;51.194;6.856;2022-12-08T09:52:09;29.33;;;15.50;;
19183;SDS011;9724;51.194;6.856;2022-12-08T09:54:38;27.63;;;14.10;;
19183;SDS011;9724;51.194;6.856;2022-12-08T09:57:05;32.07;;;14.63;;
19183;SDS011;9724;51.194;6.856;2022-12-08T09:59:32;27.20;;;14.87;;
19183;SDS011;9724;51.194;6.856;2022-12-08T10:02:00;26.03;;;13.97;;
19183;SDS011;9724;51.194;6.856;2022-12-08T10:04:27;25.53;;;14.00;;
19183;SDS011;9724;51.194;6.856;2022-12-08T10:06:58;30.67;;;13.53;;
19183;SDS011;9724;51.194;6.856;2022-12-08T10:09:30;29.30;;;13.40;;
19183;SDS011;9724;51.194;6.856;2022-12-08T10:12:04;22.87;;;12.60;;
19183;SDS011;9724;51.194;6.856;2022-12-08T10:14:37;33.83;;;12.43;;
19183;SDS011;9724;51.194;6.856;2022-12-08T10:17:08;25.90;;;11.93;;
19183;SDS011;9724;51.194;6.856;2022-12-08T10:19:39;24.57;;;12.33;;
19183;SDS011;9724;51.194;6.856;2022-12-08T10:22:20;21.37;;;11.57;;
19183;SDS011;9724;51.194;6.856;2022-12-08T10:24:51;18.40;;;10.67;;
19183;SDS011;9724;51.194;6.856;2022-12-08T10:27:22;22.43;;;11.20;;
19183;SDS011;9724;51.194;6.856;2022-12-08T10:29:49;19.87;;;11.50;;
19183;SDS011;9724;51.194;6.856;2022-12-08T10:32:17;19.60;;;10.70;;
19183;SDS011;9724;51.194;6.856;2022-12-08T10:35:01;19.27;;;10.83;;
19183;SDS011;9724;51.194;6.856;2022-12-08T10:37:29;21.70;;;11.03;;
19183;SDS011;9724;51.194;6.856;2022-12-08T10:39:58;18.37;;;10.43;;
19183;SDS011;9724;51.194;6.856;2022-12-08T10:42:29;24.30;;;10.93;;
19183;SDS011;9724;51.194;6.856;2022-12-08T10:44:59;27.23;;;12.33;;
19183;SDS011;9724;51.194;6.856;2022-12-08T10:47:34;28.03;;;11.97;;
19183;SDS011;9724;51.194;6.856;2022-12-08T10:50:09;22.17;;;11.50;;
19183;SDS011;9724;51.194;6.856;2022-12-08T10:52:43;26.53;;;11.00;;
19183;SDS011;9724;51.194;6.856;2022-12-08T10:55:13;22.07;;;10.00;;
19183;SDS011;9724;51.194;6.856;2022-12-08T10:57:41;24.17;;;11.63;;
19183;SDS011;9724;51.194;6.856;2022-12-08T11:00:11;25.23;;;11.90;;
19183;SDS011;9724;51.194;6.856;2022-12-08T11:02:49;23.07;;;11.60;;
19183;SDS011;9724;51.194;6.856;2022-12-08T11:05:16;20.07;;;10.97;;
19183;SDS011;9724;51.194;6.856;2022-12-08T11:07:45;20.83;;;11.67;;
19183;SDS011;9724;51.194;6.856;2022-12-08T11:10:14;26.23;;;12.03;;
19183;SDS011;9724;51.194;6.856;2022-12-08T11:12:43;23.13;;;12.40;;
19183;SDS011;9724;51.194;6.856;2022-12-08T11:15:13;24.00;;;11.57;;
19183;SDS011;9724;51.194;6.856;2022-12-08T11:17:40;23.43;;;11.87;;
19183;SDS011;9724;51.194;6.856;2022-12-08T11:20:18;19.93;;;11.77;;
19183;SDS011;9724;51.194;6.856;2022-12-08T11:22:49;22.27;;;11.50;;
19183;SDS011;9724;51.194;6.856;2022-12-08T11:25:17;22.03;;;10.50;;
19183;SDS011;9724;51.194;6.856;2022-12-08T11:27:45;25.13;;;11.93;;
19183;SDS011;9724;51.194;6.856;2022-12-08T11:30:13;25.80;;;11.60;;
19183;SDS011;9724;51.194;6.856;2022-12-08T11:32:42;26.10;;;11.70;;
19183;SDS011;9724;51.194;6.856;2022-12-08T11:35:09;28.07;;;11.60;;
19183;SDS011;9724;51.194;6.856;2022-12-08T11:37:43;22.43;;;10.53;;
19183;SDS011;9724;51.194;6.856;2022-12-08T11:40:13;26.40;;;10.90;;
19183;SDS011;9724;51.194;6.856;2022-12-08T11:42:44;18.70;;;9.97;;
19183;SDS011;9724;51.194;6.856;2022-12-08T11:45:18;20.40;;;10.07;;
19183;SDS011;9724;51.194;6.856;2022-12-08T11:47:48;19.67;;;10.43;;
19183;SDS011;9724;51.194;6.856;2022-12-08T11:50:21;21.90;;;10.27;;
19183;SDS011;9724;51.194;6.856;2022-12-08T11:52:50;21.83;;;10.63;;
19183;SDS011;9724;51.194;6.856;2022-12-08T11:55:22;22.60;;;9.87;;
19183;SDS011;9724;51.194;6.856;2022-12-08T11:58:08;23.40;;;10.33;;
19183;SDS011;9724;51.194;6.856;2022-12-08T12:00:38;20.17;;;9.83;;
19183;SDS011;9724;51.194;6.856;2022-12-08T12:03:05;23.13;;;10.20;;
19183;SDS011;9724;51.194;6.856;2022-12-08T12:05:38;26.07;;;11.03;;
19183;SDS011;9724;51.194;6.856;2022-12-08T12:08:32;18.20;;;9.90;;
19183;SDS011;9724;51.194;6.856;2022-12-08T12:11:07;21.60;;;10.33;;
19183;SDS011;9724;51.194;6.856;2022-12-08T12:13:59;18.10;;;9.70;;
19183;SDS011;9724;51.194;6.856;2022-12-08T12:16:39;24.83;;;10.23;;
19183;SDS011;9724;51.194;6.856;2022-12-08T12:19:13;16.93;;;9.43;;
19183;SDS011;9724;51.194;6.856;2022-12-08T12:21:41;26.13;;;10.00;;
19183;SDS011;9724;51.194;6.856;2022-12-08T12:24:09;24.93;;;10.30;;
19183;SDS011;9724;51.194;6.856;2022-12-08T12:26:52;22.83;;;9.97;;
19183;SDS011;9724;51.194;6.856;2022-12-08T12:29:21;20.10;;;9.83;;
19183;SDS011;9724;51.194;6.856;2022-12-08T12:31:51;19.60;;;9.67;;
19183;SDS011;9724;51.194;6.856;2022-12-08T12:34:20;17.90;;;9.67;;
19183;SDS011;9724;51.194;6.856;2022-12-08T12:36:49;26.13;;;9.63;;
19183;SDS011;9724;51.194;6.856;2022-12-08T12:39:17;17.50;;;9.47;;
19183;SDS011;9724;51.194;6.856;2022-12-08T12:41:47;21.23;;;9.67;;
19183;SDS011;9724;51.194;6.856;2022-12-08T12:44:21;17.87;;;9.50;;
19183;SDS011;9724;51.194;6.856;2022-12-08T12:47:04;19.17;;;10.00;;
19183;SDS011;9724;51.194;6.856;2022-12-08T12:49:49;17.97;;;9.47;;
19183;SDS011;9724;51.194;6.856;2022-12-08T12:52:38;19.50;;;9.63;;
19183;SDS011;9724;51.194;6.856;2022-12-08T12:58:20;22.17;;;9.60;;
19183;SDS011;9724;51.194;6.856;2022-12-08T13:00:49;20.80;;;9.13;;
19183;SDS011;9724;51.194;6.856;2022-12-08T13:03:15;20.43;;;9.77;;
19183;SDS011;9724;51.194;6.856;2022-12-08T13:05:46;19.90;;;9.23;;
19183;SDS011;9724;51.194;6.856;2022-12-08T13:08:15;15.53;;;8.80;;
19183;SDS011;9724;51.194;6.856;2022-12-08T13:10:46;20.50;;;8.83;;
19183;SDS011;9724;51.194;6.856;2022-12-08T13:13:15;23.83;;;9.67;;
19183;SDS011;9724;51.194;6.856;2022-12-08T13:15:47;17.93;;;8.70;;
19183;SDS011;9724;51.194;6.856;2022-12-08T13:18:17;14.33;;;8.83;;
19183;SDS011;9724;51.194;6.856;2022-12-08T13:20:45;19.10;;;8.47;;
19183;SDS011;9724;51.194;6.856;2022-12-08T13:23:23;19.47;;;9.97;;
19183;SDS011;9724;51.194;6.856;2022-12-08T13:25:55;16.17;;;7.93;;
19183;SDS011;9724;51.194;6.856;2022-12-08T13:28:34;18.43;;;9.53;;
19183;SDS011;9724;51.194;6.856;2022-12-08T13:31:49;14.57;;;7.83;;
19183;SDS011;9724;51.194;6.856;2022-12-08T13:34:18;17.10;;;8.57;;
19183;SDS011;9724;51.194;6.856;2022-12-08T13:36:51;16.63;;;8.93;;
19183;SDS011;9724;51.194;6.856;2022-12-08T13:39:25;18.97;;;9.33;;
19183;SDS011;9724;51.194;6.856;2022-12-08T13:41:57;17.23;;;8.27;;
19183;SDS011;9724;51.194;6.856;2022-12-08T13:44:27;17.67;;;8.93;;
19183;SDS011;9724;51.194;6.856;2022-12-08T13:47:18;19.07;;;8.87;;
19183;SDS011;9724;51.194;6.856;2022-12-08T13:50:00;14.83;;;8.40;;
19183;SDS011;9724;51.194;6.856;2022-12-08T13:52:51;20.60;;;9.47;;
19183;SDS011;9724;51.194;6.856;2022-12-08T13:55:41;16.97;;;8.70;;
19183;SDS011;9724;51.194;6.856;2022-12-08T13:58:29;17.77;;;8.00;;
19183;SDS011;9724;51.194;6.856;2022-12-08T14:00:59;18.67;;;8.27;;
19183;SDS011;9724;51.194;6.856;2022-12-08T14:03:28;15.37;;;7.60;;
19183;SDS011;9724;51.194;6.856;2022-12-08T14:05:55;18.00;;;8.00;;
19183;SDS011;9724;51.194;6.856;2022-12-08T14:08:38;19.30;;;8.20;;
19183;SDS011;9724;51.194;6.856;2022-12-08T14:11:25;17.10;;;7.40;;
19183;SDS011;9724;51.194;6.856;2022-12-08T14:14:02;18.13;;;7.33;;
19183;SDS011;9724;51.194;6.856;2022-12-08T14:16:31;12.97;;;7.00;;
19183;SDS011;9724;51.194;6.856;2022-12-08T14:19:04;21.33;;;7.63;;
19183;SDS011;9724;51.194;6.856;2022-12-08T14:21:31;21.73;;;8.17;;
19183;SDS011;9724;51.194;6.856;2022-12-08T14:24:01;18.87;;;7.87;;
19183;SDS011;9724;51.194;6.856;2022-12-08T14:26:29;18.17;;;8.33;;
19183;SDS011;9724;51.194;6.856;2022-12-08T14:28:57;17.27;;;8.17;;
19183;SDS011;9724;51.194;6.856;2022-12-08T14:31:24;15.67;;;8.33;;
19183;SDS011;9724;51.194;6.856;2022-12-08T14:33:50;12.10;;;7.63;;
19183;SDS011;9724;51.194;6.856;2022-12-08T14:36:22;14.70;;;7.73;;
19183;SDS011;9724;51.194;6.856;2022-12-08T14:38:49;15.07;;;7.70;;
19183;SDS011;9724;51.194;6.856;2022-12-08T14:41:15;11.63;;;7.53;;
19183;SDS011;9724;51.194;6.856;2022-12-08T14:43:41;17.90;;;8.30;;
19183;SDS011;9724;51.194;6.856;2022-12-08T14:46:18;17.50;;;8.17;;
19183;SDS011;9724;51.194;6.856;2022-12-08T14:48:45;14.57;;;7.90;;
19183;SDS011;9724;51.194;6.856;2022-12-08T14:51:13;17.00;;;7.50;;
19183;SDS011;9724;51.194;6.856;2022-12-08T14:53:44;18.87;;;7.63;;
19183;SDS011;9724;51.194;6.856;2022-12-08T14:56:14;14.43;;;7.93;;